sensor_id;sensor_type;location;lat;lon;timestamp;temperature;humidity
4701;DHT22;8724;51.272;6.554;2022-08-19T00:00:07;23.90;99.90
4701;DHT22;8724;51.272;6.554;2022-08-19T00:02:36;23.90;99.90
4701;DHT22;8724;51.272;6.554;2022-08-19T00:05:16;23.90;99.90
4701;DHT22;8724;51.272;6.554;2022-08-19T00:07:46;23.90;99.90
4701;DHT22;8724;51.272;6.554;2022-08-19T00:10:16;23.90;99.90
4701;DHT22;8724;51.272;6.554;2022-08-19T00:12:46;23.90;99.90
4701;DHT22;8724;51.272;6.554;2022-08-19T00:15:17;23.90;99.90
4701;DHT22;8724;51.272;6.554;2022-08-19T00:17:46;23.90;99.90
4701;DHT22;8724;51.272;6.554;2022-08-19T00:20:17;23.80;99.90
4701;DHT22;8724;51.272;6.554;2022-08-19T00:22:46;23.80;99.90
4701;DHT22;8724;51.272;6.554;2022-08-19T00:25:15;23.80;99.90
4701;DHT22;8724;51.272;6.554;2022-08-19T00:27:43;23.80;99.90
4701;DHT22;8724;51.272;6.554;2022-08-19T00:30:14;23.80;99.90
4701;DHT22;8724;51.272;6.554;2022-08-19T00:32:42;23.80;99.90
4701;DHT22;8724;51.272;6.554;2022-08-19T00:35:11;23.80;99.90
4701;DHT22;8724;51.272;6.554;2022-08-19T00:37:39;23.80;99.90
4701;DHT22;8724;51.272;6.554;2022-08-19T00:40:12;23.70;99.90
4701;DHT22;8724;51.272;6.554;2022-08-19T00:42:41;23.70;99.90
4701;DHT22;8724;51.272;6.554;2022-08-19T00:45:14;23.70;99.90
4701;DHT22;8724;51.272;6.554;2022-08-19T00:47:44;23.70;99.90
4701;DHT22;8724;51.272;6.554;2022-08-19T00:50:15;23.70;99.90
4701;DHT22;8724;51.272;6.554;2022-08-19T00:52:47;23.70;99.90
4701;DHT22;8724;51.272;6.554;2022-08-19T00:55:20;23.70;99.90
4701;DHT22;8724;51.272;6.554;2022-08-19T00:57:53;23.70;99.90
4701;DHT22;8724;51.272;6.554;2022-08-19T01:00:25;23.70;99.90
4701;DHT22;8724;51.272;6.554;2022-08-19T01:02:54;23.60;99.90
4701;DHT22;8724;51.272;6.554;2022-08-19T01:05:25;23.60;99.90
4701;DHT22;8724;51.272;6.554;2022-08-19T01:07:57;23.60;99.90
4701;DHT22;8724;51.272;6.554;2022-08-19T01:10:28;23.60;99.90
4701;DHT22;8724;51.272;6.554;2022-08-19T01:13:03;23.60;99.90
4701;DHT22;8724;51.272;6.554;2022-08-19T01:15:38;23.60;99.90
4701;DHT22;8724;51.272;6.554;2022-08-19T01:18:11;23.50;99.90
4701;DHT22;8724;51.272;6.554;2022-08-19T01:20:40;23.50;99.90
4701;DHT22;8724;51.272;6.554;2022-08-19T01:23:12;23.50;99.90
4701;DHT22;8724;51.272;6.554;2022-08-19T01:25:46;23.50;99.90
4701;DHT22;8724;51.272;6.554;2022-08-19T01:28:17;23.50;99.90
4701;DHT22;8724;51.272;6.554;2022-08-19T01:31:00;23.50;99.90
4701;DHT22;8724;51.272;6.554;2022-08-19T01:33:34;23.50;99.90
4701;DHT22;8724;51.272;6.554;2022-08-19T01:36:08;23.50;99.90
4701;DHT22;8724;51.272;6.554;2022-08-19T01:38:43;23.40;99.90
4701;DHT22;8724;51.272;6.554;2022-08-19T01:41:12;23.40;99.90
4701;DHT22;8724;51.272;6.554;2022-08-19T01:43:40;23.50;99.90
4701;DHT22;8724;51.272;6.554;2022-08-19T01:46:28;23.40;99.90
4701;DHT22;8724;51.272;6.554;2022-08-19T01:48:57;23.40;99.90
4701;DHT22;8724;51.272;6.554;2022-08-19T01:51:26;23.40;99.90
4701;DHT22;8724;51.272;6.554;2022-08-19T01:53:56;23.40;99.90
4701;DHT22;8724;51.272;6.554;2022-08-19T01:56:25;23.40;99.90
4701;DHT22;8724;51.272;6.554;2022-08-19T01:58:55;23.30;99.90
4701;DHT22;8724;51.272;6.554;2022-08-19T02:01:25;23.30;99.90
4701;DHT22;8724;51.272;6.554;2022-08-19T02:03:57;23.30;99.90
4701;DHT22;8724;51.272;6.554;2022-08-19T02:06:28;23.30;99.90
4701;DHT22;8724;51.272;6.554;2022-08-19T02:08:58;23.30;99.90
4701;DHT22;8724;51.272;6.554;2022-08-19T02:11:28;23.30;99.90
4701;DHT22;8724;51.272;6.554;2022-08-19T02:13:59;23.30;99.90
4701;DHT22;8724;51.272;6.554;2022-08-19T02:16:29;23.30;99.90
4701;DHT22;8724;51.272;6.554;2022-08-19T02:18:58;23.30;99.90
4701;DHT22;8724;51.272;6.554;2022-08-19T02:21:27;23.20;99.90
4701;DHT22;8724;51.272;6.554;2022-08-19T02:23:58;23.20;99.90
4701;DHT22;8724;51.272;6.554;2022-08-19T02:26:26;23.20;99.90
4701;DHT22;8724;51.272;6.554;2022-08-19T02:28:55;23.20;99.90
4701;DHT22;8724;51.272;6.554;2022-08-19T02:31:24;23.20;99.90
4701;DHT22;8724;51.272;6.554;2022-08-19T02:33:54;23.20;99.90
4701;DHT22;8724;51.272;6.554;2022-08-19T02:36:24;23.20;99.90
4701;DHT22;8724;51.272;6.554;2022-08-19T02:38:53;23.20;99.90
4701;DHT22;8724;51.272;6.554;2022-08-19T02:41:25;23.20;99.90
4701;DHT22;8724;51.272;6.554;2022-08-19T02:43:54;23.20;99.90
4701;DHT22;8724;51.272;6.554;2022-08-19T02:46:45;23.20;99.90
4701;DHT22;8724;51.272;6.554;2022-08-19T02:49:14;23.20;99.90
4701;DHT22;8724;51.272;6.554;2022-08-19T02:51:44;23.10;99.90
4701;DHT22;8724;51.272;6.554;2022-08-19T02:54:13;23.10;99.90
4701;DHT22;8724;51.272;6.554;2022-08-19T02:56:43;23.10;99.90
4701;DHT22;8724;51.272;6.554;2022-08-19T02:59:12;23.10;99.90
4701;DHT22;8724;51.272;6.554;2022-08-19T03:01:41;23.10;99.90
4701;DHT22;8724;51.272;6.554;2022-08-19T03:04:12;23.10;99.90
4701;DHT22;8724;51.272;6.554;2022-08-19T03:06:43;23.10;99.90
4701;DHT22;8724;51.272;6.554;2022-08-19T03:09:13;23.00;99.90
4701;DHT22;8724;51.272;6.554;2022-08-19T03:11:42;23.00;99.90
4701;DHT22;8724;51.272;6.554;2022-08-19T03:14:12;23.00;99.90
4701;DHT22;8724;51.272;6.554;2022-08-19T03:16:44;22.90;99.90
4701;DHT22;8724;51.272;6.554;2022-08-19T03:19:15;22.90;99.90
4701;DHT22;8724;51.272;6.554;2022-08-19T03:21:44;22.90;99.90
4701;DHT22;8724;51.272;6.554;2022-08-19T03:24:14;22.90;99.90
4701;DHT22;8724;51.272;6.554;2022-08-19T03:26:46;22.80;99.90
4701;DHT22;8724;51.272;6.554;2022-08-19T03:29:15;22.90;99.90
4701;DHT22;8724;51.272;6.554;2022-08-19T03:31:57;22.80;99.90
4701;DHT22;8724;51.272;6.554;2022-08-19T03:34:29;22.80;99.90
4701;DHT22;8724;51.272;6.554;2022-08-19T03:37:02;22.80;99.90
4701;DHT22;8724;51.272;6.554;2022-08-19T03:39:31;22.80;99.90
4701;DHT22;8724;51.272;6.554;2022-08-19T03:42:01;22.80;99.90
4701;DHT22;8724;51.272;6.554;2022-08-19T03:44:50;22.70;99.90
4701;DHT22;8724;51.272;6.554;2022-08-19T03:47:18;22.70;99.90
4701;DHT22;8724;51.272;6.554;2022-08-19T03:49:46;22.70;99.90
4701;DHT22;8724;51.272;6.554;2022-08-19T03:52:15;22.70;99.90
4701;DHT22;8724;51.272;6.554;2022-08-19T03:54:43;22.70;99.90
4701;DHT22;8724;51.272;6.554;2022-08-19T03:57:13;22.70;99.90
4701;DHT22;8724;51.272;6.554;2022-08-19T03:59:41;22.70;99.90
4701;DHT22;8724;51.272;6.554;2022-08-19T04:02:11;22.70;99.90
4701;DHT22;8724;51.272;6.554;2022-08-19T04:04:42;22.70;99.90
4701;DHT22;8724;51.272;6.554;2022-08-19T04:07:12;22.70;99.90
4701;DHT22;8724;51.272;6.554;2022-08-19T04:09:42;22.70;99.90
4701;DHT22;8724;51.272;6.554;2022-08-19T04:12:12;22.60;99.90
4701;DHT22;8724;51.272;6.554;2022-08-19T04:14:41;22.60;99.90
4701;DHT22;8724;51.272;6.554;2022-08-19T04:17:10;22.60;99.90
4701;DHT22;8724;51.272;6.554;2022-08-19T04:19:40;22.60;99.90
4701;DHT22;8724;51.272;6.554;2022-08-19T04:22:09;22.60;99.90
4701;DHT22;8724;51.272;6.554;2022-08-19T04:24:38;22.50;99.90
4701;DHT22;8724;51.272;6.554;2022-08-19T04:27:07;22.50;99.90
4701;DHT22;8724;51.272;6.554;2022-08-19T04:29:36;22.50;99.90
4701;DHT22;8724;51.272;6.554;2022-08-19T04:32:06;22.50;99.90
4701;DHT22;8724;51.272;6.554;2022-08-19T04:34:36;22.50;99.90
4701;DHT22;8724;51.272;6.554;2022-08-19T04:37:24;22.40;99.90
4701;DHT22;8724;51.272;6.554;2022-08-19T04:40:03;22.50;99.90
4701;DHT22;8724;51.272;6.554;2022-08-19T04:42:50;22.40;99.90
4701;DHT22;8724;51.272;6.554;2022-08-19T04:45:20;22.40;99.90
4701;DHT22;8724;51.272;6.554;2022-08-19T04:47:49;22.40;99.90
4701;DHT22;8724;51.272;6.554;2022-08-19T04:50:41;22.40;99.90
4701;DHT22;8724;51.272;6.554;2022-08-19T04:53:09;22.30;99.90
4701;DHT22;8724;51.272;6.554;2022-08-19T04:55:39;22.40;99.90
4701;DHT22;8724;51.272;6.554;2022-08-19T04:58:08;22.40;99.90
4701;DHT22;8724;51.272;6.554;2022-08-19T05:00:39;22.30;99.90
4701;DHT22;8724;51.272;6.554;2022-08-19T05:03:09;22.30;99.90
4701;DHT22;8724;51.272;6.554;2022-08-19T05:05:41;22.30;99.90
4701;DHT22;8724;51.272;6.554;2022-08-19T05:08:11;22.30;99.90
4701;DHT22;8724;51.272;6.554;2022-08-19T05:10:41;22.30;99.90
4701;DHT22;8724;51.272;6.554;2022-08-19T05:13:10;22.30;99.90
4701;DHT22;8724;51.272;6.554;2022-08-19T05:15:40;22.40;99.90
4701;DHT22;8724;51.272;6.554;2022-08-19T05:18:09;22.40;99.90
4701;DHT22;8724;51.272;6.554;2022-08-19T05:20:54;22.30;99.90
4701;DHT22;8724;51.272;6.554;2022-08-19T05:23:40;22.30;99.90
4701;DHT22;8724;51.272;6.554;2022-08-19T05:26:08;22.30;99.90
4701;DHT22;8724;51.272;6.554;2022-08-19T05:28:37;22.30;99.90
4701;DHT22;8724;51.272;6.554;2022-08-19T05:31:07;22.30;99.90
4701;DHT22;8724;51.272;6.554;2022-08-19T05:33:35;22.30;99.90
4701;DHT22;8724;51.272;6.554;2022-08-19T05:36:04;22.20;99.90
4701;DHT22;8724;51.272;6.554;2022-08-19T05:38:34;22.20;99.90
4701;DHT22;8724;51.272;6.554;2022-08-19T05:41:07;22.20;99.90
4701;DHT22;8724;51.272;6.554;2022-08-19T05:43:36;22.20;99.90
4701;DHT22;8724;51.272;6.554;2022-08-19T05:46:07;22.30;99.90
4701;DHT22;8724;51.272;6.554;2022-08-19T05:48:36;22.30;99.90
4701;DHT22;8724;51.272;6.554;2022-08-19T05:51:05;22.30;99.90
4701;DHT22;8724;51.272;6.554;2022-08-19T05:53:35;22.30;99.90
4701;DHT22;8724;51.272;6.554;2022-08-19T05:56:04;22.30;99.90
4701;DHT22;8724;51.272;6.554;2022-08-19T05:58:34;22.40;99.90
4701;DHT22;8724;51.272;6.554;2022-08-19T06:01:03;22.30;99.90
4701;DHT22;8724;51.272;6.554;2022-08-19T06:03:34;22.40;99.90
4701;DHT22;8724;51.272;6.554;2022-08-19T06:06:05;22.40;99.90
4701;DHT22;8724;51.272;6.554;2022-08-19T06:08:34;22.40;99.90
4701;DHT22;8724;51.272;6.554;2022-08-19T06:11:14;22.40;99.90
4701;DHT22;8724;51.272;6.554;2022-08-19T06:13:43;22.40;99.90
4701;DHT22;8724;51.272;6.554;2022-08-19T06:16:14;22.40;99.90
4701;DHT22;8724;51.272;6.554;2022-08-19T06:18:48;22.50;99.90
4701;DHT22;8724;51.272;6.554;2022-08-19T06:21:19;22.40;99.90
4701;DHT22;8724;51.272;6.554;2022-08-19T06:23:48;22.40;99.90
4701;DHT22;8724;51.272;6.554;2022-08-19T06:26:19;22.40;99.90
4701;DHT22;8724;51.272;6.554;2022-08-19T06:28:48;22.50;99.90
4701;DHT22;8724;51.272;6.554;2022-08-19T06:31:20;22.50;99.90
4701;DHT22;8724;51.272;6.554;2022-08-19T06:33:50;22.50;99.90
4701;DHT22;8724;51.272;6.554;2022-08-19T06:36:24;22.50;99.90
4701;DHT22;8724;51.272;6.554;2022-08-19T06:38:59;22.50;99.90
4701;DHT22;8724;51.272;6.554;2022-08-19T06:41:28;22.60;99.90
4701;DHT22;8724;51.272;6.554;2022-08-19T06:43:56;22.60;99.90
4701;DHT22;8724;51.272;6.554;2022-08-19T06:46:25;22.60;99.90
4701;DHT22;8724;51.272;6.554;2022-08-19T06:48:56;22.60;99.90
4701;DHT22;8724;51.272;6.554;2022-08-19T06:51:25;22.60;99.90
4701;DHT22;8724;51.272;6.554;2022-08-19T06:53:57;22.60;99.90
4701;DHT22;8724;51.272;6.554;2022-08-19T06:56:28;22.60;99.90
4701;DHT22;8724;51.272;6.554;2022-08-19T06:59:03;22.60;99.90
4701;DHT22;8724;51.272;6.554;2022-08-19T07:01:35;22.60;99.90
4701;DHT22;8724;51.272;6.554;2022-08-19T07:04:07;22.60;99.90
4701;DHT22;8724;51.272;6.554;2022-08-19T07:06:38;22.60;99.90
4701;DHT22;8724;51.272;6.554;2022-08-19T07:09:12;22.60;99.90
4701;DHT22;8724;51.272;6.554;2022-08-19T07:11:45;22.60;99.90
4701;DHT22;8724;51.272;6.554;2022-08-19T07:14:17;22.60;99.90
4701;DHT22;8724;51.272;6.554;2022-08-19T07:16:47;22.60;99.90
4701;DHT22;8724;51.272;6.554;2022-08-19T07:19:18;22.60;99.90
4701;DHT22;8724;51.272;6.554;2022-08-19T07:21:48;22.60;99.90
4701;DHT22;8724;51.272;6.554;2022-08-19T07:24:21;22.60;99.90
4701;DHT22;8724;51.272;6.554;2022-08-19T07:26:52;22.60;99.90
4701;DHT22;8724;51.272;6.554;2022-08-19T07:29:22;22.60;99.90
4701;DHT22;8724;51.272;6.554;2022-08-19T07:31:55;22.60;99.90
4701;DHT22;8724;51.272;6.554;2022-08-19T07:34:29;22.60;99.90
4701;DHT22;8724;51.272;6.554;2022-08-19T07:36:58;22.60;99.90
4701;DHT22;8724;51.272;6.554;2022-08-19T07:39:29;22.60;99.90
4701;DHT22;8724;51.272;6.554;2022-08-19T07:42:00;22.60;99.90
4701;DHT22;8724;51.272;6.554;2022-08-19T07:44:29;22.60;99.90
4701;DHT22;8724;51.272;6.554;2022-08-19T07:46:58;22.60;99.90
4701;DHT22;8724;51.272;6.554;2022-08-19T07:49:28;22.70;99.90
4701;DHT22;8724;51.272;6.554;2022-08-19T07:51:58;22.70;99.90
4701;DHT22;8724;51.272;6.554;2022-08-19T07:54:30;22.70;99.90
4701;DHT22;8724;51.272;6.554;2022-08-19T07:56:58;22.70;99.90
4701;DHT22;8724;51.272;6.554;2022-08-19T07:59:27;22.70;99.90
4701;DHT22;8724;51.272;6.554;2022-08-19T08:01:56;22.70;99.90
4701;DHT22;8724;51.272;6.554;2022-08-19T08:04:28;22.70;99.90
4701;DHT22;8724;51.272;6.554;2022-08-19T08:07:14;22.70;99.90
4701;DHT22;8724;51.272;6.554;2022-08-19T08:10:04;22.80;99.90
4701;DHT22;8724;51.272;6.554;2022-08-19T08:12:47;22.80;99.90
4701;DHT22;8724;51.272;6.554;2022-08-19T08:15:36;22.80;99.90
4701;DHT22;8724;51.272;6.554;2022-08-19T08:18:10;22.80;99.90
4701;DHT22;8724;51.272;6.554;2022-08-19T08:20:41;22.80;99.90
4701;DHT22;8724;51.272;6.554;2022-08-19T08:23:10;22.80;99.90
4701;DHT22;8724;51.272;6.554;2022-08-19T08:25:53;22.90;99.90
4701;DHT22;8724;51.272;6.554;2022-08-19T08:28:22;22.90;99.90
4701;DHT22;8724;51.272;6.554;2022-08-19T08:30:52;22.90;99.90
4701;DHT22;8724;51.272;6.554;2022-08-19T08:33:23;22.90;99.90
4701;DHT22;8724;51.272;6.554;2022-08-19T08:36:04;23.00;99.90
4701;DHT22;8724;51.272;6.554;2022-08-19T08:38:33;23.00;99.90
4701;DHT22;8724;51.272;6.554;2022-08-19T08:41:13;23.00;99.90
4701;DHT22;8724;51.272;6.554;2022-08-19T08:43:49;23.00;99.90
4701;DHT22;8724;51.272;6.554;2022-08-19T08:46:23;23.00;99.90
4701;DHT22;8724;51.272;6.554;2022-08-19T08:49:03;23.00;99.90
4701;DHT22;8724;51.272;6.554;2022-08-19T08:51:39;23.10;99.90
4701;DHT22;8724;51.272;6.554;2022-08-19T08:54:13;23.10;99.90
4701;DHT22;8724;51.272;6.554;2022-08-19T08:56:43;23.10;99.90
4701;DHT22;8724;51.272;6.554;2022-08-19T08:59:19;23.10;99.90
4701;DHT22;8724;51.272;6.554;2022-08-19T09:01:48;23.10;99.90
4701;DHT22;8724;51.272;6.554;2022-08-19T09:04:17;23.10;99.90
4701;DHT22;8724;51.272;6.554;2022-08-19T09:06:53;23.10;99.90
4701;DHT22;8724;51.272;6.554;2022-08-19T09:09:30;23.10;99.90
4701;DHT22;8724;51.272;6.554;2022-08-19T09:12:06;23.20;99.90
4701;DHT22;8724;51.272;6.554;2022-08-19T09:14:44;23.20;99.90
4701;DHT22;8724;51.272;6.554;2022-08-19T09:17:18;23.20;99.90
4701;DHT22;8724;51.272;6.554;2022-08-19T09:19:53;23.20;99.90
4701;DHT22;8724;51.272;6.554;2022-08-19T09:22:23;23.20;99.90
4701;DHT22;8724;51.272;6.554;2022-08-19T09:24:54;23.30;99.90
4701;DHT22;8724;51.272;6.554;2022-08-19T09:27:23;23.20;99.90
4701;DHT22;8724;51.272;6.554;2022-08-19T09:30:12;23.20;99.90
4701;DHT22;8724;51.272;6.554;2022-08-19T09:32:42;23.30;99.90
4701;DHT22;8724;51.272;6.554;2022-08-19T09:35:11;23.30;99.90
4701;DHT22;8724;51.272;6.554;2022-08-19T09:37:42;23.20;99.90
4701;DHT22;8724;51.272;6.554;2022-08-19T09:40:12;23.30;99.90
4701;DHT22;8724;51.272;6.554;2022-08-19T09:42:42;23.30;99.90
4701;DHT22;8724;51.272;6.554;2022-08-19T09:45:19;23.30;99.90
4701;DHT22;8724;51.272;6.554;2022-08-19T09:47:50;23.30;99.90
4701;DHT22;8724;51.272;6.554;2022-08-19T09:50:22;23.30;99.90
4701;DHT22;8724;51.272;6.554;2022-08-19T09:52:52;23.30;99.90
4701;DHT22;8724;51.272;6.554;2022-08-19T09:55:25;23.30;99.90
4701;DHT22;8724;51.272;6.554;2022-08-19T09:57:57;23.40;99.90
4701;DHT22;8724;51.272;6.554;2022-08-19T10:00:26;23.30;99.90
4701;DHT22;8724;51.272;6.554;2022-08-19T10:02:54;23.30;99.90
4701;DHT22;8724;51.272;6.554;2022-08-19T10:05:23;23.40;99.90
4701;DHT22;8724;51.272;6.554;2022-08-19T10:08:10;23.40;99.90
4701;DHT22;8724;51.272;6.554;2022-08-19T10:10:40;23.40;99.90
4701;DHT22;8724;51.272;6.554;2022-08-19T10:13:14;23.50;99.90
4701;DHT22;8724;51.272;6.554;2022-08-19T10:15:43;23.40;99.90
4701;DHT22;8724;51.272;6.554;2022-08-19T10:18:16;23.50;99.90
4701;DHT22;8724;51.272;6.554;2022-08-19T10:20:45;23.50;99.90
4701;DHT22;8724;51.272;6.554;2022-08-19T10:23:20;23.50;99.90
4701;DHT22;8724;51.272;6.554;2022-08-19T10:25:49;23.50;99.90
4701;DHT22;8724;51.272;6.554;2022-08-19T10:28:18;23.50;99.90
4701;DHT22;8724;51.272;6.554;2022-08-19T10:30:49;23.60;99.90
4701;DHT22;8724;51.272;6.554;2022-08-19T10:33:18;23.60;99.90
4701;DHT22;8724;51.272;6.554;2022-08-19T10:36:09;23.60;99.90
4701;DHT22;8724;51.272;6.554;2022-08-19T10:38:39;23.70;99.90
4701;DHT22;8724;51.272;6.554;2022-08-19T10:41:22;23.70;99.90
4701;DHT22;8724;51.272;6.554;2022-08-19T10:43:51;23.70;99.90
4701;DHT22;8724;51.272;6.554;2022-08-19T10:46:22;23.70;99.90
4701;DHT22;8724;51.272;6.554;2022-08-19T10:48:51;23.70;99.90
4701;DHT22;8724;51.272;6.554;2022-08-19T10:51:20;23.70;99.90
4701;DHT22;8724;51.272;6.554;2022-08-19T10:54:16;23.80;99.90
4701;DHT22;8724;51.272;6.554;2022-08-19T10:56:58;23.80;99.90
4701;DHT22;8724;51.272;6.554;2022-08-19T10:59:27;23.80;99.90
4701;DHT22;8724;51.272;6.554;2022-08-19T11:02:04;23.90;99.90
4701;DHT22;8724;51.272;6.554;2022-08-19T11:04:33;23.90;99.90
4701;DHT22;8724;51.272;6.554;2022-08-19T11:07:02;23.90;99.90
4701;DHT22;8724;51.272;6.554;2022-08-19T11:09:39;23.90;99.90
4701;DHT22;8724;51.272;6.554;2022-08-19T11:12:08;23.90;99.90
4701;DHT22;8724;51.272;6.554;2022-08-19T11:14:39;23.90;99.90
4701;DHT22;8724;51.272;6.554;2022-08-19T11:17:08;23.90;99.90
4701;DHT22;8724;51.272;6.554;2022-08-19T11:19:38;23.90;99.90
4701;DHT22;8724;51.272;6.554;2022-08-19T11:22:08;23.90;99.90
4701;DHT22;8724;51.272;6.554;2022-08-19T11:24:43;23.90;99.90
4701;DHT22;8724;51.272;6.554;2022-08-19T11:27:11;24.00;99.90
4701;DHT22;8724;51.272;6.554;2022-08-19T11:29:41;24.00;99.90
4701;DHT22;8724;51.272;6.554;2022-08-19T11:32:10;24.00;99.90
4701;DHT22;8724;51.272;6.554;2022-08-19T11:34:39;24.00;99.90
4701;DHT22;8724;51.272;6.554;2022-08-19T11:37:08;24.00;99.90
4701;DHT22;8724;51.272;6.554;2022-08-19T11:39:36;24.00;99.90
4701;DHT22;8724;51.272;6.554;2022-08-19T11:42:07;24.00;99.90
4701;DHT22;8724;51.272;6.554;2022-08-19T11:44:50;24.10;99.90
4701;DHT22;8724;51.272;6.554;2022-08-19T11:47:18;24.10;99.90
4701;DHT22;8724;51.272;6.554;2022-08-19T11:49:47;24.10;99.90
4701;DHT22;8724;51.272;6.554;2022-08-19T11:52:15;24.10;99.90
4701;DHT22;8724;51.272;6.554;2022-08-19T11:54:44;24.20;99.90
4701;DHT22;8724;51.272;6.554;2022-08-19T11:57:13;24.20;99.90
4701;DHT22;8724;51.272;6.554;2022-08-19T11:59:48;24.20;99.90
4701;DHT22;8724;51.272;6.554;2022-08-19T12:02:17;24.20;99.90
4701;DHT22;8724;51.272;6.554;2022-08-19T12:04:46;24.20;99.90
4701;DHT22;8724;51.272;6.554;2022-08-19T12:07:14;24.30;99.90
4701;DHT22;8724;51.272;6.554;2022-08-19T12:09:43;24.30;99.90
4701;DHT22;8724;51.272;6.554;2022-08-19T12:12:16;24.30;99.90
4701;DHT22;8724;51.272;6.554;2022-08-19T12:14:44;24.30;99.90
4701;DHT22;8724;51.272;6.554;2022-08-19T12:17:13;24.30;99.90
4701;DHT22;8724;51.272;6.554;2022-08-19T12:19:42;24.30;99.90
4701;DHT22;8724;51.272;6.554;2022-08-19T12:22:10;24.40;99.90
4701;DHT22;8724;51.272;6.554;2022-08-19T12:24:39;24.40;99.90
4701;DHT22;8724;51.272;6.554;2022-08-19T12:27:07;24.40;99.90
4701;DHT22;8724;51.272;6.554;2022-08-19T12:29:39;24.50;99.90
4701;DHT22;8724;51.272;6.554;2022-08-19T12:32:08;24.50;99.90
4701;DHT22;8724;51.272;6.554;2022-08-19T12:34:38;24.50;99.90
4701;DHT22;8724;51.272;6.554;2022-08-19T12:37:07;24.60;99.90
4701;DHT22;8724;51.272;6.554;2022-08-19T12:39:37;24.60;99.90
4701;DHT22;8724;51.272;6.554;2022-08-19T12:42:06;24.60;99.90
4701;DHT22;8724;51.272;6.554;2022-08-19T12:44:35;24.70;99.90
4701;DHT22;8724;51.272;6.554;2022-08-19T12:47:06;24.70;99.90
4701;DHT22;8724;51.272;6.554;2022-08-19T12:49:36;24.80;99.90
4701;DHT22;8724;51.272;6.554;2022-08-19T12:52:23;24.80;99.90
4701;DHT22;8724;51.272;6.554;2022-08-19T12:54:52;24.80;99.90
4701;DHT22;8724;51.272;6.554;2022-08-19T12:57:22;24.80;99.90
4701;DHT22;8724;51.272;6.554;2022-08-19T13:00:00;24.80;99.90
4701;DHT22;8724;51.272;6.554;2022-08-19T13:02:33;24.80;99.90
4701;DHT22;8724;51.272;6.554;2022-08-19T13:05:08;24.90;99.90
4701;DHT22;8724;51.272;6.554;2022-08-19T13:07:37;24.90;99.90
4701;DHT22;8724;51.272;6.554;2022-08-19T13:10:08;24.90;99.90
4701;DHT22;8724;51.272;6.554;2022-08-19T13:12:38;25.00;99.90
4701;DHT22;8724;51.272;6.554;2022-08-19T13:15:08;25.00;99.90
4701;DHT22;8724;51.272;6.554;2022-08-19T13:17:39;25.10;99.90
4701;DHT22;8724;51.272;6.554;2022-08-19T13:20:09;25.10;99.90
4701;DHT22;8724;51.272;6.554;2022-08-19T13:22:38;25.10;99.90
4701;DHT22;8724;51.272;6.554;2022-08-19T13:25:08;25.10;99.90
4701;DHT22;8724;51.272;6.554;2022-08-19T13:27:37;25.10;99.90
4701;DHT22;8724;51.272;6.554;2022-08-19T13:30:08;25.10;99.90
4701;DHT22;8724;51.272;6.554;2022-08-19T13:32:55;25.10;99.90
4701;DHT22;8724;51.272;6.554;2022-08-19T13:35:44;25.10;99.90
4701;DHT22;8724;51.272;6.554;2022-08-19T13:38:14;25.10;99.90
4701;DHT22;8724;51.272;6.554;2022-08-19T13:40:44;25.10;99.90
4701;DHT22;8724;51.272;6.554;2022-08-19T13:43:13;25.20;99.90
4701;DHT22;8724;51.272;6.554;2022-08-19T13:45:50;25.20;99.90
4701;DHT22;8724;51.272;6.554;2022-08-19T13:48:24;25.20;99.90
4701;DHT22;8724;51.272;6.554;2022-08-19T13:50:53;25.30;99.90
4701;DHT22;8724;51.272;6.554;2022-08-19T13:53:22;25.30;99.90
4701;DHT22;8724;51.272;6.554;2022-08-19T13:55:51;25.30;99.90
4701;DHT22;8724;51.272;6.554;2022-08-19T13:58:22;25.30;99.90
4701;DHT22;8724;51.272;6.554;2022-08-19T14:00:50;25.40;99.90
4701;DHT22;8724;51.272;6.554;2022-08-19T14:03:18;25.40;99.90
4701;DHT22;8724;51.272;6.554;2022-08-19T14:05:48;25.40;99.90
4701;DHT22;8724;51.272;6.554;2022-08-19T14:08:17;25.50;99.90
4701;DHT22;8724;51.272;6.554;2022-08-19T14:10:46;25.50;99.90
4701;DHT22;8724;51.272;6.554;2022-08-19T14:13:17;25.50;99.90
4701;DHT22;8724;51.272;6.554;2022-08-19T14:15:46;25.50;99.90
4701;DHT22;8724;51.272;6.554;2022-08-19T14:18:16;25.50;99.90
4701;DHT22;8724;51.272;6.554;2022-08-19T14:20:45;25.50;99.90
4701;DHT22;8724;51.272;6.554;2022-08-19T14:23:15;25.60;99.90
4701;DHT22;8724;51.272;6.554;2022-08-19T14:25:43;25.60;99.90
4701;DHT22;8724;51.272;6.554;2022-08-19T14:28:13;25.60;99.90
4701;DHT22;8724;51.272;6.554;2022-08-19T14:30:41;25.60;99.90
4701;DHT22;8724;51.272;6.554;2022-08-19T14:33:11;25.70;99.90
4701;DHT22;8724;51.272;6.554;2022-08-19T14:35:41;25.70;99.90
4701;DHT22;8724;51.272;6.554;2022-08-19T14:38:17;25.70;99.90
4701;DHT22;8724;51.272;6.554;2022-08-19T14:41:06;25.70;99.90
4701;DHT22;8724;51.272;6.554;2022-08-19T14:43:35;25.80;99.90
4701;DHT22;8724;51.272;6.554;2022-08-19T14:46:05;25.80;99.90
4701;DHT22;8724;51.272;6.554;2022-08-19T14:48:36;25.90;99.90
4701;DHT22;8724;51.272;6.554;2022-08-19T14:51:07;25.90;99.90
4701;DHT22;8724;51.272;6.554;2022-08-19T14:53:37;25.80;99.90
4701;DHT22;8724;51.272;6.554;2022-08-19T14:56:11;25.90;99.90
4701;DHT22;8724;51.272;6.554;2022-08-19T14:58:40;25.90;99.90
4701;DHT22;8724;51.272;6.554;2022-08-19T15:01:10;26.00;99.90
4701;DHT22;8724;51.272;6.554;2022-08-19T15:03:39;26.00;99.90
4701;DHT22;8724;51.272;6.554;2022-08-19T15:06:08;26.00;99.90
4701;DHT22;8724;51.272;6.554;2022-08-19T15:08:41;26.00;99.90
4701;DHT22;8724;51.272;6.554;2022-08-19T15:11:11;26.00;99.90
4701;DHT22;8724;51.272;6.554;2022-08-19T15:13:42;26.00;99.90
4701;DHT22;8724;51.272;6.554;2022-08-19T15:16:10;26.00;99.90
4701;DHT22;8724;51.272;6.554;2022-08-19T15:18:44;26.10;99.90
4701;DHT22;8724;51.272;6.554;2022-08-19T15:21:14;26.10;99.90
4701;DHT22;8724;51.272;6.554;2022-08-19T15:23:56;26.10;99.90
4701;DHT22;8724;51.272;6.554;2022-08-19T15:26:25;26.10;99.90
4701;DHT22;8724;51.272;6.554;2022-08-19T15:28:54;26.10;99.90
4701;DHT22;8724;51.272;6.554;2022-08-19T15:31:23;26.10;99.90
4701;DHT22;8724;51.272;6.554;2022-08-19T15:33:55;26.20;99.90
4701;DHT22;8724;51.272;6.554;2022-08-19T15:36:25;26.20;99.90
4701;DHT22;8724;51.272;6.554;2022-08-19T15:38:55;26.20;99.90
4701;DHT22;8724;51.272;6.554;2022-08-19T15:41:26;26.30;99.90
4701;DHT22;8724;51.272;6.554;2022-08-19T15:43:58;26.40;99.90
4701;DHT22;8724;51.272;6.554;2022-08-19T15:46:28;26.40;99.90
4701;DHT22;8724;51.272;6.554;2022-08-19T15:48:58;26.50;99.90
4701;DHT22;8724;51.272;6.554;2022-08-19T15:51:28;26.60;99.90
4701;DHT22;8724;51.272;6.554;2022-08-19T15:53:59;26.60;99.90
4701;DHT22;8724;51.272;6.554;2022-08-19T15:56:27;26.70;99.90
4701;DHT22;8724;51.272;6.554;2022-08-19T15:59:24;26.70;99.90
4701;DHT22;8724;51.272;6.554;2022-08-19T16:02:14;26.70;99.90
4701;DHT22;8724;51.272;6.554;2022-08-19T16:05:00;26.70;99.90
4701;DHT22;8724;51.272;6.554;2022-08-19T16:07:46;26.70;99.90
4701;DHT22;8724;51.272;6.554;2022-08-19T16:10:16;26.60;99.90
4701;DHT22;8724;51.272;6.554;2022-08-19T16:12:52;26.50;99.90
4701;DHT22;8724;51.272;6.554;2022-08-19T16:15:21;26.40;99.90
4701;DHT22;8724;51.272;6.554;2022-08-19T16:17:49;26.40;99.90
4701;DHT22;8724;51.272;6.554;2022-08-19T16:20:24;26.30;99.90
4701;DHT22;8724;51.272;6.554;2022-08-19T16:22:54;26.30;99.90
4701;DHT22;8724;51.272;6.554;2022-08-19T16:25:26;26.20;99.90
4701;DHT22;8724;51.272;6.554;2022-08-19T16:27:56;26.10;99.90
4701;DHT22;8724;51.272;6.554;2022-08-19T16:30:36;26.10;99.90